sensor_id;sensor_type;location;lat;lon;timestamp;P1;durP1;ratioP1;P2;durP2;ratioP2
2011;SDS011;1009;51.436;6.972;2022-07-29T00:02:22;2.97;;;1.43;;
2011;SDS011;1009;51.436;6.972;2022-07-29T00:04:49;3.77;;;1.80;;
2011;SDS011;1009;51.436;6.972;2022-07-29T00:07:16;3.07;;;1.30;;
2011;SDS011;1009;51.436;6.972;2022-07-29T00:09:44;3.83;;;1.33;;
2011;SDS011;1009;51.436;6.972;2022-07-29T00:12:11;2.60;;;1.30;;
2011;SDS011;1009;51.436;6.972;2022-07-29T00:14:37;3.00;;;1.60;;
2011;SDS011;1009;51.436;6.972;2022-07-29T00:17:04;2.63;;;1.40;;
2011;SDS011;1009;51.436;6.972;2022-07-29T00:19:31;6.27;;;1.60;;
2011;SDS011;1009;51.436;6.972;2022-07-29T00:21:59;4.10;;;1.93;;
2011;SDS011;1009;51.436;6.972;2022-07-29T00:24:26;10.40;;;1.70;;
2011;SDS011;1009;51.436;6.972;2022-07-29T00:26:54;3.27;;;1.40;;
2011;SDS011;1009;51.436;6.972;2022-07-29T00:29:20;5.83;;;1.90;;
2011;SDS011;1009;51.436;6.972;2022-07-29T00:31:47;3.60;;;1.60;;
2011;SDS011;1009;51.436;6.972;2022-07-29T00:34:14;3.80;;;1.67;;
2011;SDS011;1009;51.436;6.972;2022-07-29T00:36:55;2.23;;;1.27;;
2011;SDS011;1009;51.436;6.972;2022-07-29T00:39:22;5.50;;;1.27;;
2011;SDS011;1009;51.436;6.972;2022-07-29T00:41:49;3.13;;;1.53;;
2011;SDS011;1009;51.436;6.972;2022-07-29T00:44:17;5.23;;;1.90;;
2011;SDS011;1009;51.436;6.972;2022-07-29T00:46:44;3.80;;;1.73;;
2011;SDS011;1009;51.436;6.972;2022-07-29T00:49:11;7.70;;;1.60;;
2011;SDS011;1009;51.436;6.972;2022-07-29T00:51:38;4.60;;;1.30;;
2011;SDS011;1009;51.436;6.972;2022-07-29T00:54:05;3.50;;;1.30;;
2011;SDS011;1009;51.436;6.972;2022-07-29T00:56:33;3.40;;;1.40;;
2011;SDS011;1009;51.436;6.972;2022-07-29T00:59:00;3.67;;;1.50;;
2011;SDS011;1009;51.436;6.972;2022-07-29T01:01:28;2.50;;;1.33;;
2011;SDS011;1009;51.436;6.972;2022-07-29T01:03:55;3.43;;;1.37;;
2011;SDS011;1009;51.436;6.972;2022-07-29T01:06:22;3.20;;;1.40;;
2011;SDS011;1009;51.436;6.972;2022-07-29T01:08:49;3.90;;;1.40;;
2011;SDS011;1009;51.436;6.972;2022-07-29T01:11:17;3.57;;;1.40;;
2011;SDS011;1009;51.436;6.972;2022-07-29T01:13:44;2.93;;;1.50;;
2011;SDS011;1009;51.436;6.972;2022-07-29T01:16:15;5.97;;;2.17;;
2011;SDS011;1009;51.436;6.972;2022-07-29T01:18:49;3.80;;;1.50;;
2011;SDS011;1009;51.436;6.972;2022-07-29T01:21:40;4.83;;;1.53;;
2011;SDS011;1009;51.436;6.972;2022-07-29T01:24:29;3.30;;;1.37;;
2011;SDS011;1009;51.436;6.972;2022-07-29T01:27:16;6.20;;;1.70;;
2011;SDS011;1009;51.436;6.972;2022-07-29T01:30:00;3.80;;;1.60;;
2011;SDS011;1009;51.436;6.972;2022-07-29T01:32:28;7.80;;;1.50;;
2011;SDS011;1009;51.436;6.972;2022-07-29T01:35:02;4.27;;;1.50;;
2011;SDS011;1009;51.436;6.972;2022-07-29T01:37:33;4.80;;;1.67;;
2011;SDS011;1009;51.436;6.972;2022-07-29T01:40:04;3.67;;;1.57;;
2011;SDS011;1009;51.436;6.972;2022-07-29T01:42:35;2.90;;;1.30;;
2011;SDS011;1009;51.436;6.972;2022-07-29T01:45:08;6.80;;;1.43;;
2011;SDS011;1009;51.436;6.972;2022-07-29T01:47:42;2.80;;;1.40;;
2011;SDS011;1009;51.436;6.972;2022-07-29T01:50:14;3.17;;;1.30;;
2011;SDS011;1009;51.436;6.972;2022-07-29T01:52:44;5.10;;;1.50;;
2011;SDS011;1009;51.436;6.972;2022-07-29T01:55:16;3.20;;;1.60;;
2011;SDS011;1009;51.436;6.972;2022-07-29T01:57:46;6.30;;;1.70;;
2011;SDS011;1009;51.436;6.972;2022-07-29T02:00:16;4.80;;;1.63;;
2011;SDS011;1009;51.436;6.972;2022-07-29T02:02:44;7.03;;;1.83;;
2011;SDS011;1009;51.436;6.972;2022-07-29T02:05:15;3.00;;;1.57;;
2011;SDS011;1009;51.436;6.972;2022-07-29T02:07:44;6.30;;;1.80;;
2011;SDS011;1009;51.436;6.972;2022-07-29T02:10:13;5.00;;;1.73;;
2011;SDS011;1009;51.436;6.972;2022-07-29T02:12:42;2.57;;;1.57;;
2011;SDS011;1009;51.436;6.972;2022-07-29T02:15:10;4.23;;;1.40;;
2011;SDS011;1009;51.436;6.972;2022-07-29T02:17:41;3.70;;;1.70;;
2011;SDS011;1009;51.436;6.972;2022-07-29T02:20:09;3.67;;;1.60;;
2011;SDS011;1009;51.436;6.972;2022-07-29T02:22:39;4.20;;;1.60;;
2011;SDS011;1009;51.436;6.972;2022-07-29T02:25:07;3.43;;;1.40;;
2011;SDS011;1009;51.436;6.972;2022-07-29T02:27:35;3.60;;;1.70;;
2011;SDS011;1009;51.436;6.972;2022-07-29T02:30:04;3.87;;;1.50;;
2011;SDS011;1009;51.436;6.972;2022-07-29T02:32:34;3.90;;;1.40;;
2011;SDS011;1009;51.436;6.972;2022-07-29T02:35:05;8.73;;;2.70;;
2011;SDS011;1009;51.436;6.972;2022-07-29T02:37:33;4.60;;;1.50;;
2011;SDS011;1009;51.436;6.972;2022-07-29T02:40:01;2.73;;;1.40;;
2011;SDS011;1009;51.436;6.972;2022-07-29T02:42:28;4.20;;;1.67;;
2011;SDS011;1009;51.436;6.972;2022-07-29T02:44:57;3.23;;;1.30;;
2011;SDS011;1009;51.436;6.972;2022-07-29T02:47:24;2.83;;;1.73;;
2011;SDS011;1009;51.436;6.972;2022-07-29T02:49:59;4.60;;;2.03;;
2011;SDS011;1009;51.436;6.972;2022-07-29T02:52:34;5.03;;;1.47;;
2011;SDS011;1009;51.436;6.972;2022-07-29T02:55:07;5.80;;;1.67;;
2011;SDS011;1009;51.436;6.972;2022-07-29T02:57:41;3.63;;;1.40;;
2011;SDS011;1009;51.436;6.972;2022-07-29T03:00:10;8.37;;;1.40;;
2011;SDS011;1009;51.436;6.972;2022-07-29T03:02:39;6.07;;;1.67;;
2011;SDS011;1009;51.436;6.972;2022-07-29T03:05:11;4.83;;;1.90;;
2011;SDS011;1009;51.436;6.972;2022-07-29T03:07:45;5.77;;;2.17;;
2011;SDS011;1009;51.436;6.972;2022-07-29T03:10:14;4.90;;;1.80;;
2011;SDS011;1009;51.436;6.972;2022-07-29T03:12:41;5.73;;;1.60;;
2011;SDS011;1009;51.436;6.972;2022-07-29T03:15:09;5.00;;;1.70;;
2011;SDS011;1009;51.436;6.972;2022-07-29T03:17:37;5.90;;;1.97;;
2011;SDS011;1009;51.436;6.972;2022-07-29T03:20:06;5.00;;;1.80;;
2011;SDS011;1009;51.436;6.972;2022-07-29T03:22:34;3.93;;;1.50;;
2011;SDS011;1009;51.436;6.972;2022-07-29T03:25:10;3.70;;;1.57;;
2011;SDS011;1009;51.436;6.972;2022-07-29T03:27:37;2.93;;;1.40;;
2011;SDS011;1009;51.436;6.972;2022-07-29T03:30:04;3.50;;;1.50;;
2011;SDS011;1009;51.436;6.972;2022-07-29T03:32:33;4.33;;;1.50;;
2011;SDS011;1009;51.436;6.972;2022-07-29T03:35:00;5.50;;;1.60;;
2011;SDS011;1009;51.436;6.972;2022-07-29T03:37:27;2.47;;;1.60;;
2011;SDS011;1009;51.436;6.972;2022-07-29T03:39:55;5.73;;;1.67;;
2011;SDS011;1009;51.436;6.972;2022-07-29T03:42:25;5.97;;;1.90;;
2011;SDS011;1009;51.436;6.972;2022-07-29T03:44:56;4.20;;;1.50;;
2011;SDS011;1009;51.436;6.972;2022-07-29T03:47:25;4.17;;;1.67;;
2011;SDS011;1009;51.436;6.972;2022-07-29T03:49:57;4.43;;;1.90;;
2011;SDS011;1009;51.436;6.972;2022-07-29T03:52:28;3.50;;;1.40;;
2011;SDS011;1009;51.436;6.972;2022-07-29T03:54:54;3.03;;;1.33;;
2011;SDS011;1009;51.436;6.972;2022-07-29T03:57:23;2.90;;;1.67;;
2011;SDS011;1009;51.436;6.972;2022-07-29T03:59:54;3.87;;;1.60;;
2011;SDS011;1009;51.436;6.972;2022-07-29T04:02:21;4.03;;;1.70;;
2011;SDS011;1009;51.436;6.972;2022-07-29T04:04:49;4.47;;;1.50;;
2011;SDS011;1009;51.436;6.972;2022-07-29T04:07:16;3.90;;;1.77;;
2011;SDS011;1009;51.436;6.972;2022-07-29T04:09:42;3.53;;;1.47;;
2011;SDS011;1009;51.436;6.972;2022-07-29T04:12:09;3.73;;;1.47;;
2011;SDS011;1009;51.436;6.972;2022-07-29T04:14:37;2.43;;;1.40;;
2011;SDS011;1009;51.436;6.972;2022-07-29T04:17:04;3.90;;;1.70;;
2011;SDS011;1009;51.436;6.972;2022-07-29T04:19:31;5.43;;;1.50;;
2011;SDS011;1009;51.436;6.972;2022-07-29T04:21:58;4.80;;;1.97;;
2011;SDS011;1009;51.436;6.972;2022-07-29T04:24:26;2.50;;;1.57;;
2011;SDS011;1009;51.436;6.972;2022-07-29T04:26:53;3.77;;;1.60;;
2011;SDS011;1009;51.436;6.972;2022-07-29T04:29:20;4.03;;;1.40;;
2011;SDS011;1009;51.436;6.972;2022-07-29T04:31:48;2.80;;;1.57;;
2011;SDS011;1009;51.436;6.972;2022-07-29T04:34:15;3.43;;;1.80;;
2011;SDS011;1009;51.436;6.972;2022-07-29T04:36:42;3.23;;;1.83;;
2011;SDS011;1009;51.436;6.972;2022-07-29T04:39:08;4.70;;;1.67;;
2011;SDS011;1009;51.436;6.972;2022-07-29T04:41:36;7.13;;;1.90;;
2011;SDS011;1009;51.436;6.972;2022-07-29T04:44:03;3.70;;;1.50;;
2011;SDS011;1009;51.436;6.972;2022-07-29T04:46:30;4.70;;;2.23;;
2011;SDS011;1009;51.436;6.972;2022-07-29T04:48:58;5.37;;;1.70;;
2011;SDS011;1009;51.436;6.972;2022-07-29T04:51:25;6.00;;;1.87;;
2011;SDS011;1009;51.436;6.972;2022-07-29T04:53:52;5.87;;;1.40;;
2011;SDS011;1009;51.436;6.972;2022-07-29T04:56:19;4.63;;;1.67;;
2011;SDS011;1009;51.436;6.972;2022-07-29T04:58:45;3.40;;;1.67;;
2011;SDS011;1009;51.436;6.972;2022-07-29T05:01:12;3.37;;;1.70;;
2011;SDS011;1009;51.436;6.972;2022-07-29T05:03:40;5.80;;;2.10;;
2011;SDS011;1009;51.436;6.972;2022-07-29T05:06:08;5.60;;;1.70;;
2011;SDS011;1009;51.436;6.972;2022-07-29T05:08:35;3.40;;;1.50;;
2011;SDS011;1009;51.436;6.972;2022-07-29T05:11:02;5.10;;;2.10;;
2011;SDS011;1009;51.436;6.972;2022-07-29T05:13:28;3.60;;;1.80;;
2011;SDS011;1009;51.436;6.972;2022-07-29T05:15:55;2.93;;;1.60;;
2011;SDS011;1009;51.436;6.972;2022-07-29T05:18:23;8.57;;;2.47;;
2011;SDS011;1009;51.436;6.972;2022-07-29T05:20:50;10.60;;;3.00;;
2011;SDS011;1009;51.436;6.972;2022-07-29T05:23:18;6.67;;;2.57;;
2011;SDS011;1009;51.436;6.972;2022-07-29T05:25:45;5.20;;;2.30;;
2011;SDS011;1009;51.436;6.972;2022-07-29T05:28:12;6.73;;;2.97;;
2011;SDS011;1009;51.436;6.972;2022-07-29T05:30:38;3.57;;;2.50;;
2011;SDS011;1009;51.436;6.972;2022-07-29T05:33:05;7.27;;;2.60;;
2011;SDS011;1009;51.436;6.972;2022-07-29T05:35:32;4.80;;;2.37;;
2011;SDS011;1009;51.436;6.972;2022-07-29T05:37:59;5.20;;;2.90;;
2011;SDS011;1009;51.436;6.972;2022-07-29T05:40:28;7.83;;;2.70;;
2011;SDS011;1009;51.436;6.972;2022-07-29T05:42:54;7.33;;;3.30;;
2011;SDS011;1009;51.436;6.972;2022-07-29T05:45:22;9.17;;;3.17;;
2011;SDS011;1009;51.436;6.972;2022-07-29T05:47:49;4.80;;;2.80;;
2011;SDS011;1009;51.436;6.972;2022-07-29T05:50:16;7.20;;;3.00;;
2011;SDS011;1009;51.436;6.972;2022-07-29T05:52:43;4.70;;;2.23;;
2011;SDS011;1009;51.436;6.972;2022-07-29T05:55:10;5.40;;;3.73;;
2011;SDS011;1009;51.436;6.972;2022-07-29T05:57:38;4.50;;;3.10;;
2011;SDS011;1009;51.436;6.972;2022-07-29T06:00:05;6.90;;;3.20;;
2011;SDS011;1009;51.436;6.972;2022-07-29T06:02:33;5.17;;;3.20;;
2011;SDS011;1009;51.436;6.972;2022-07-29T06:05:00;5.60;;;2.40;;
2011;SDS011;1009;51.436;6.972;2022-07-29T06:07:26;4.33;;;2.97;;
2011;SDS011;1009;51.436;6.972;2022-07-29T06:09:53;5.00;;;2.00;;
2011;SDS011;1009;51.436;6.972;2022-07-29T06:12:20;8.70;;;3.57;;
2011;SDS011;1009;51.436;6.972;2022-07-29T06:14:48;5.60;;;3.10;;
2011;SDS011;1009;51.436;6.972;2022-07-29T06:17:15;7.50;;;3.27;;
2011;SDS011;1009;51.436;6.972;2022-07-29T06:19:42;8.00;;;3.10;;
2011;SDS011;1009;51.436;6.972;2022-07-29T06:22:09;6.27;;;3.27;;
2011;SDS011;1009;51.436;6.972;2022-07-29T06:24:36;6.43;;;3.20;;
2011;SDS011;1009;51.436;6.972;2022-07-29T06:27:06;4.10;;;3.03;;
2011;SDS011;1009;51.436;6.972;2022-07-29T06:29:33;4.70;;;2.83;;
2011;SDS011;1009;51.436;6.972;2022-07-29T06:32:01;5.10;;;3.20;;
2011;SDS011;1009;51.436;6.972;2022-07-29T06:34:28;9.03;;;3.37;;
2011;SDS011;1009;51.436;6.972;2022-07-29T06:36:55;6.33;;;3.37;;
2011;SDS011;1009;51.436;6.972;2022-07-29T06:39:22;6.60;;;3.30;;
2011;SDS011;1009;51.436;6.972;2022-07-29T06:41:49;4.83;;;3.20;;
2011;SDS011;1009;51.436;6.972;2022-07-29T06:44:17;5.17;;;3.07;;
2011;SDS011;1009;51.436;6.972;2022-07-29T06:46:44;4.87;;;3.07;;
2011;SDS011;1009;51.436;6.972;2022-07-29T06:49:15;6.53;;;3.47;;
2011;SDS011;1009;51.436;6.972;2022-07-29T06:51:42;7.13;;;3.20;;
2011;SDS011;1009;51.436;6.972;2022-07-29T06:54:08;3.40;;;2.37;;
2011;SDS011;1009;51.436;6.972;2022-07-29T06:56:35;4.50;;;2.83;;
2011;SDS011;1009;51.436;6.972;2022-07-29T06:59:03;3.57;;;2.67;;
2011;SDS011;1009;51.436;6.972;2022-07-29T07:01:30;4.77;;;2.50;;
2011;SDS011;1009;51.436;6.972;2022-07-29T07:03:56;8.70;;;3.10;;
2011;SDS011;1009;51.436;6.972;2022-07-29T07:06:25;7.20;;;3.33;;
2011;SDS011;1009;51.436;6.972;2022-07-29T07:08:51;4.90;;;3.40;;
2011;SDS011;1009;51.436;6.972;2022-07-29T07:11:18;8.23;;;3.53;;
2011;SDS011;1009;51.436;6.972;2022-07-29T07:13:45;7.80;;;3.60;;
2011;SDS011;1009;51.436;6.972;2022-07-29T07:16:12;6.30;;;3.37;;
2011;SDS011;1009;51.436;6.972;2022-07-29T07:18:38;7.37;;;3.87;;
2011;SDS011;1009;51.436;6.972;2022-07-29T07:21:05;7.70;;;3.10;;
2011;SDS011;1009;51.436;6.972;2022-07-29T07:23:33;6.30;;;3.43;;
2011;SDS011;1009;51.436;6.972;2022-07-29T07:26:00;6.57;;;3.13;;
2011;SDS011;1009;51.436;6.972;2022-07-29T07:28:28;4.20;;;3.00;;
2011;SDS011;1009;51.436;6.972;2022-07-29T07:30:54;4.90;;;3.20;;
2011;SDS011;1009;51.436;6.972;2022-07-29T07:33:21;5.90;;;3.03;;
2011;SDS011;1009;51.436;6.972;2022-07-29T07:35:48;4.77;;;3.10;;
2011;SDS011;1009;51.436;6.972;2022-07-29T07:38:15;5.07;;;3.27;;
2011;SDS011;1009;51.436;6.972;2022-07-29T07:40:43;6.83;;;4.17;;
2011;SDS011;1009;51.436;6.972;2022-07-29T07:43:11;5.80;;;3.50;;
2011;SDS011;1009;51.436;6.972;2022-07-29T07:45:38;6.73;;;3.40;;
2011;SDS011;1009;51.436;6.972;2022-07-29T07:48:05;4.43;;;4.03;;
2011;SDS011;1009;51.436;6.972;2022-07-29T07:50:31;7.77;;;3.90;;
2011;SDS011;1009;51.436;6.972;2022-07-29T07:52:58;9.93;;;3.53;;
2011;SDS011;1009;51.436;6.972;2022-07-29T07:55:27;5.60;;;3.53;;
2011;SDS011;1009;51.436;6.972;2022-07-29T07:57:55;12.23;;;4.20;;
2011;SDS011;1009;51.436;6.972;2022-07-29T08:00:22;5.73;;;3.60;;
2011;SDS011;1009;51.436;6.972;2022-07-29T08:02:49;6.43;;;4.03;;
2011;SDS011;1009;51.436;6.972;2022-07-29T08:05:16;6.03;;;3.20;;
2011;SDS011;1009;51.436;6.972;2022-07-29T08:07:43;5.80;;;3.30;;
2011;SDS011;1009;51.436;6.972;2022-07-29T08:10:11;5.83;;;2.90;;
2011;SDS011;1009;51.436;6.972;2022-07-29T08:12:39;5.30;;;3.17;;
2011;SDS011;1009;51.436;6.972;2022-07-29T08:15:08;5.13;;;3.13;;
2011;SDS011;1009;51.436;6.972;2022-07-29T08:17:35;7.30;;;4.13;;
2011;SDS011;1009;51.436;6.972;2022-07-29T08:20:02;8.23;;;3.33;;
2011;SDS011;1009;51.436;6.972;2022-07-29T08:22:29;8.30;;;3.30;;
2011;SDS011;1009;51.436;6.972;2022-07-29T08:24:56;6.80;;;2.77;;
2011;SDS011;1009;51.436;6.972;2022-07-29T08:27:23;6.73;;;3.57;;
2011;SDS011;1009;51.436;6.972;2022-07-29T08:29:51;5.90;;;3.37;;
2011;SDS011;1009;51.436;6.972;2022-07-29T08:32:19;4.73;;;2.93;;
2011;SDS011;1009;51.436;6.972;2022-07-29T08:34:46;8.83;;;3.73;;
2011;SDS011;1009;51.436;6.972;2022-07-29T08:37:13;7.53;;;3.63;;
2011;SDS011;1009;51.436;6.972;2022-07-29T08:39:40;8.50;;;3.83;;
2011;SDS011;1009;51.436;6.972;2022-07-29T08:42:07;9.10;;;4.33;;
2011;SDS011;1009;51.436;6.972;2022-07-29T08:44:34;4.40;;;3.50;;
2011;SDS011;1009;51.436;6.972;2022-07-29T08:47:02;8.60;;;4.40;;
2011;SDS011;1009;51.436;6.972;2022-07-29T08:49:30;7.90;;;3.60;;
2011;SDS011;1009;51.436;6.972;2022-07-29T08:51:59;6.70;;;4.00;;
2011;SDS011;1009;51.436;6.972;2022-07-29T08:54:27;6.60;;;4.60;;
2011;SDS011;1009;51.436;6.972;2022-07-29T08:56:53;5.17;;;4.37;;
2011;SDS011;1009;51.436;6.972;2022-07-29T08:59:22;6.67;;;4.00;;
2011;SDS011;1009;51.436;6.972;2022-07-29T09:01:52;5.27;;;3.93;;
2011;SDS011;1009;51.436;6.972;2022-07-29T09:04:19;7.07;;;4.70;;
2011;SDS011;1009;51.436;6.972;2022-07-29T09:06:49;8.83;;;5.77;;
2011;SDS011;1009;51.436;6.972;2022-07-29T09:09:18;5.87;;;5.07;;
2011;SDS011;1009;51.436;6.972;2022-07-29T09:11:45;7.00;;;4.70;;
2011;SDS011;1009;51.436;6.972;2022-07-29T09:14:12;7.77;;;4.90;;
2011;SDS011;1009;51.436;6.972;2022-07-29T09:16:49;6.10;;;4.57;;
2011;SDS011;1009;51.436;6.972;2022-07-29T09:19:25;5.83;;;5.23;;
2011;SDS011;1009;51.436;6.972;2022-07-29T09:21:54;10.47;;;5.57;;
2011;SDS011;1009;51.436;6.972;2022-07-29T09:24:26;6.20;;;4.97;;
2011;SDS011;1009;51.436;6.972;2022-07-29T09:27:06;9.33;;;5.57;;
2011;SDS011;1009;51.436;6.972;2022-07-29T09:29:35;14.93;;;5.97;;
2011;SDS011;1009;51.436;6.972;2022-07-29T09:32:05;10.37;;;5.07;;
2011;SDS011;1009;51.436;6.972;2022-07-29T09:34:34;10.47;;;6.10;;
2011;SDS011;1009;51.436;6.972;2022-07-29T09:37:03;9.23;;;5.47;;
2011;SDS011;1009;51.436;6.972;2022-07-29T09:39:30;8.73;;;5.20;;
2011;SDS011;1009;51.436;6.972;2022-07-29T09:41:59;9.20;;;5.20;;
2011;SDS011;1009;51.436;6.972;2022-07-29T09:44:27;12.27;;;5.30;;
2011;SDS011;1009;51.436;6.972;2022-07-29T09:47:07;10.80;;;5.60;;
2011;SDS011;1009;51.436;6.972;2022-07-29T09:49:34;9.43;;;5.40;;
2011;SDS011;1009;51.436;6.972;2022-07-29T09:52:07;13.67;;;6.20;;
2011;SDS011;1009;51.436;6.972;2022-07-29T09:54:34;8.23;;;5.60;;
2011;SDS011;1009;51.436;6.972;2022-07-29T09:57:05;7.37;;;4.77;;
2011;SDS011;1009;51.436;6.972;2022-07-29T09:59:34;6.80;;;5.27;;
2011;SDS011;1009;51.436;6.972;2022-07-29T10:02:01;8.50;;;5.40;;
2011;SDS011;1009;51.436;6.972;2022-07-29T10:04:38;9.13;;;4.63;;
2011;SDS011;1009;51.436;6.972;2022-07-29T10:07:07;8.37;;;5.27;;
2011;SDS011;1009;51.436;6.972;2022-07-29T10:09:35;9.03;;;5.53;;
2011;SDS011;1009;51.436;6.972;2022-07-29T10:12:03;8.17;;;5.20;;
2011;SDS011;1009;51.436;6.972;2022-07-29T10:14:31;8.77;;;5.53;;
2011;SDS011;1009;51.436;6.972;2022-07-29T10:16:58;9.23;;;5.70;;
2011;SDS011;1009;51.436;6.972;2022-07-29T10:19:26;13.03;;;5.20;;
2011;SDS011;1009;51.436;6.972;2022-07-29T10:21:54;9.27;;;5.10;;
2011;SDS011;1009;51.436;6.972;2022-07-29T10:24:23;6.77;;;4.70;;
2011;SDS011;1009;51.436;6.972;2022-07-29T10:26:51;11.27;;;4.90;;
2011;SDS011;1009;51.436;6.972;2022-07-29T10:29:18;7.47;;;5.30;;
2011;SDS011;1009;51.436;6.972;2022-07-29T10:31:48;13.87;;;4.70;;
2011;SDS011;1009;51.436;6.972;2022-07-29T10:34:23;7.70;;;4.93;;
2011;SDS011;1009;51.436;6.972;2022-07-29T10:37:03;14.10;;;4.87;;
2011;SDS011;1009;51.436;6.972;2022-07-29T10:39:45;7.37;;;5.40;;
2011;SDS011;1009;51.436;6.972;2022-07-29T10:42:20;6.90;;;4.67;;
2011;SDS011;1009;51.436;6.972;2022-07-29T10:44:49;10.00;;;4.30;;
2011;SDS011;1009;51.436;6.972;2022-07-29T10:47:21;8.10;;;4.33;;
2011;SDS011;1009;51.436;6.972;2022-07-29T10:49:55;5.17;;;3.70;;
2011;SDS011;1009;51.436;6.972;2022-07-29T10:52:23;9.00;;;4.90;;
2011;SDS011;1009;51.436;6.972;2022-07-29T10:54:54;7.00;;;3.80;;
2011;SDS011;1009;51.436;6.972;2022-07-29T10:57:24;7.80;;;4.57;;
2011;SDS011;1009;51.436;6.972;2022-07-29T11:02:51;8.80;;;4.50;;
2011;SDS011;1009;51.436;6.972;2022-07-29T11:05:20;7.17;;;4.03;;
2011;SDS011;1009;51.436;6.972;2022-07-29T11:13:58;8.23;;;4.33;;
2011;SDS011;1009;51.436;6.972;2022-07-29T11:16:24;7.57;;;3.90;;
2011;SDS011;1009;51.436;6.972;2022-07-29T11:21:49;10.20;;;4.03;;
2011;SDS011;1009;51.436;6.972;2022-07-29T11:24:18;8.50;;;3.97;;
2011;SDS011;1009;51.436;6.972;2022-07-29T11:29:35;6.00;;;4.40;;
2011;SDS011;1009;51.436;6.972;2022-07-29T11:32:09;9.77;;;3.80;;
2011;SDS011;1009;51.436;6.972;2022-07-29T11:34:37;6.87;;;4.40;;
2011;SDS011;1009;51.436;6.972;2022-07-29T11:37:15;8.53;;;3.70;;
2011;SDS011;1009;51.436;6.972;2022-07-29T11:42:51;6.33;;;4.77;;
2011;SDS011;1009;51.436;6.972;2022-07-29T11:45:19;15.37;;;4.00;;
2011;SDS011;1009;51.436;6.972;2022-07-29T11:47:52;6.07;;;3.83;;
2011;SDS011;1009;51.436;6.972;2022-07-29T11:50:27;5.43;;;3.30;;
2011;SDS011;1009;51.436;6.972;2022-07-29T11:52:56;7.80;;;3.50;;
2011;SDS011;1009;51.436;6.972;2022-07-29T11:55:23;7.03;;;2.97;;
2011;SDS011;1009;51.436;6.972;2022-07-29T11:57:52;7.23;;;3.03;;
2011;SDS011;1009;51.436;6.972;2022-07-29T12:00:24;6.67;;;3.77;;
2011;SDS011;1009;51.436;6.972;2022-07-29T12:02:53;6.40;;;3.53;;
2011;SDS011;1009;51.436;6.972;2022-07-29T12:05:24;4.13;;;3.00;;
2011;SDS011;1009;51.436;6.972;2022-07-29T12:08:03;5.50;;;3.20;;
2011;SDS011;1009;51.436;6.972;2022-07-29T12:10:35;5.47;;;3.30;;
2011;SDS011;1009;51.436;6.972;2022-07-29T12:13:03;5.90;;;2.90;;
2011;SDS011;1009;51.436;6.972;2022-07-29T12:15:30;8.03;;;3.97;;
2011;SDS011;1009;51.436;6.972;2022-07-29T12:17:57;5.80;;;3.43;;
2011;SDS011;1009;51.436;6.972;2022-07-29T12:20:24;6.97;;;3.50;;
2011;SDS011;1009;51.436;6.972;2022-07-29T12:22:53;9.13;;;4.10;;
2011;SDS011;1009;51.436;6.972;2022-07-29T12:25:21;6.10;;;3.23;;
2011;SDS011;1009;51.436;6.972;2022-07-29T12:27:57;8.80;;;4.80;;
2011;SDS011;1009;51.436;6.972;2022-07-29T12:30:35;5.10;;;3.47;;
2011;SDS011;1009;51.436;6.972;2022-07-29T12:33:10;6.57;;;3.30;;
2011;SDS011;1009;51.436;6.972;2022-07-29T12:35:41;6.37;;;3.53;;
2011;SDS011;1009;51.436;6.972;2022-07-29T12:38:10;5.03;;;3.07;;
2011;SDS011;1009;51.436;6.972;2022-07-29T12:40:38;8.23;;;3.50;;
2011;SDS011;1009;51.436;6.972;2022-07-29T12:43:05;7.10;;;4.13;;
2011;SDS011;1009;51.436;6.972;2022-07-29T12:45:35;11.30;;;3.70;;
2011;SDS011;1009;51.436;6.972;2022-07-29T12:48:02;4.23;;;3.17;;
2011;SDS011;1009;51.436;6.972;2022-07-29T12:50:30;7.30;;;3.37;;
2011;SDS011;1009;51.436;6.972;2022-07-29T12:53:07;6.53;;;3.10;;
2011;SDS011;1009;51.436;6.972;2022-07-29T12:55:42;4.60;;;3.13;;
2011;SDS011;1009;51.436;6.972;2022-07-29T12:58:13;6.77;;;2.93;;
2011;SDS011;1009;51.436;6.972;2022-07-29T13:00:59;5.10;;;3.20;;
2011;SDS011;1009;51.436;6.972;2022-07-29T13:03:27;7.20;;;2.87;;
2011;SDS011;1009;51.436;6.972;2022-07-29T13:05:54;4.37;;;2.70;;
2011;SDS011;1009;51.436;6.972;2022-07-29T13:08:20;4.57;;;2.90;;
2011;SDS011;1009;51.436;6.972;2022-07-29T13:10:47;3.53;;;2.67;;
2011;SDS011;1009;51.436;6.972;2022-07-29T13:13:14;5.50;;;2.90;;
2011;SDS011;1009;51.436;6.972;2022-07-29T13:15:42;5.13;;;2.73;;
2011;SDS011;1009;51.436;6.972;2022-07-29T13:18:28;5.27;;;2.80;;
2011;SDS011;1009;51.436;6.972;2022-07-29T13:20:57;6.30;;;3.73;;
2011;SDS011;1009;51.436;6.972;2022-07-29T13:23:36;5.70;;;2.80;;
2011;SDS011;1009;51.436;6.972;2022-07-29T13:26:05;8.13;;;3.23;;
2011;SDS011;1009;51.436;6.972;2022-07-29T13:28:32;6.37;;;2.70;;
2011;SDS011;1009;51.436;6.972;2022-07-29T13:30:59;6.70;;;3.57;;
2011;SDS011;1009;51.436;6.972;2022-07-29T13:33:27;6.07;;;2.93;;
2011;SDS011;1009;51.436;6.972;2022-07-29T13:35:55;5.80;;;2.97;;
2011;SDS011;1009;51.436;6.972;2022-07-29T13:38:21;10.30;;;2.80;;
2011;SDS011;1009;51.436;6.972;2022-07-29T13:40:48;6.70;;;3.67;;
2011;SDS011;1009;51.436;6.972;2022-07-29T13:43:15;4.27;;;3.13;;
2011;SDS011;1009;51.436;6.972;2022-07-29T13:45:42;6.27;;;3.60;;
2011;SDS011;1009;51.436;6.972;2022-07-29T13:48:09;10.33;;;3.50;;
2011;SDS011;1009;51.436;6.972;2022-07-29T13:50:37;5.00;;;3.20;;
2011;SDS011;1009;51.436;6.972;2022-07-29T13:53:04;7.73;;;2.67;;
2011;SDS011;1009;51.436;6.972;2022-07-29T13:55:30;7.90;;;2.77;;
2011;SDS011;1009;51.436;6.972;2022-07-29T13:57:57;5.93;;;3.37;;
2011;SDS011;1009;51.436;6.972;2022-07-29T14:00:24;6.10;;;3.17;;
2011;SDS011;1009;51.436;6.972;2022-07-29T14:02:51;5.97;;;3.77;;
2011;SDS011;1009;51.436;6.972;2022-07-29T14:05:18;8.50;;;4.10;;
2011;SDS011;1009;51.436;6.972;2022-07-29T14:07:46;7.07;;;3.80;;
2011;SDS011;1009;51.436;6.972;2022-07-29T14:10:13;6.33;;;2.80;;
2011;SDS011;1009;51.436;6.972;2022-07-29T14:12:40;5.80;;;3.70;;
2011;SDS011;1009;51.436;6.972;2022-07-29T14:15:08;5.13;;;3.10;;
2011;SDS011;1009;51.436;6.972;2022-07-29T14:17:35;5.03;;;3.00;;
2011;SDS011;1009;51.436;6.972;2022-07-29T14:20:01;6.10;;;3.03;;
2011;SDS011;1009;51.436;6.972;2022-07-29T14:22:29;4.57;;;2.63;;
2011;SDS011;1009;51.436;6.972;2022-07-29T14:24:57;4.93;;;3.30;;
2011;SDS011;1009;51.436;6.972;2022-07-29T14:27:23;5.07;;;3.60;;
2011;SDS011;1009;51.436;6.972;2022-07-29T14:29:50;7.07;;;3.00;;
2011;SDS011;1009;51.436;6.972;2022-07-29T14:32:17;6.83;;;3.20;;
2011;SDS011;1009;51.436;6.972;2022-07-29T14:34:44;5.20;;;3.10;;
2011;SDS011;1009;51.436;6.972;2022-07-29T14:37:11;5.00;;;3.33;;
2011;SDS011;1009;51.436;6.972;2022-07-29T14:39:37;7.43;;;3.53;;
2011;SDS011;1009;51.436;6.972;2022-07-29T14:42:06;5.87;;;3.73;;
2011;SDS011;1009;51.436;6.972;2022-07-29T14:44:32;4.40;;;3.10;;
2011;SDS011;1009;51.436;6.972;2022-07-29T14:47:00;4.83;;;3.90;;
2011;SDS011;1009;51.436;6.972;2022-07-29T14:49:27;7.70;;;4.07;;
2011;SDS011;1009;51.436;6.972;2022-07-29T14:51:53;4.07;;;2.83;;
2011;SDS011;1009;51.436;6.972;2022-07-29T14:54:20;8.27;;;4.03;;
2011;SDS011;1009;51.436;6.972;2022-07-29T14:56:47;6.30;;;3.90;;
2011;SDS011;1009;51.436;6.972;2022-07-29T14:59:17;5.30;;;3.90;;
2011;SDS011;1009;51.436;6.972;2022-07-29T15:01:43;6.00;;;3.40;;
2011;SDS011;1009;51.436;6.972;2022-07-29T15:04:10;4.20;;;3.00;;
2011;SDS011;1009;51.436;6.972;2022-07-29T15:06:37;8.77;;;3.30;;
2011;SDS011;1009;51.436;6.972;2022-07-29T15:09:04;5.43;;;3.37;;
2011;SDS011;1009;51.436;6.972;2022-07-29T15:11:31;7.20;;;3.67;;
2011;SDS011;1009;51.436;6.972;2022-07-29T15:13:57;5.83;;;4.47;;
2011;SDS011;1009;51.436;6.972;2022-07-29T15:16:25;5.57;;;3.90;;
2011;SDS011;1009;51.436;6.972;2022-07-29T15:18:52;5.10;;;3.30;;
2011;SDS011;1009;51.436;6.972;2022-07-29T15:21:21;9.80;;;3.23;;
2011;SDS011;1009;51.436;6.972;2022-07-29T15:23:48;5.43;;;3.00;;
2011;SDS011;1009;51.436;6.972;2022-07-29T15:26:15;5.90;;;3.73;;
2011;SDS011;1009;51.436;6.972;2022-07-29T15:28:42;9.60;;;4.23;;
2011;SDS011;1009;51.436;6.972;2022-07-29T15:31:09;5.43;;;3.33;;
2011;SDS011;1009;51.436;6.972;2022-07-29T15:33:37;8.33;;;3.97;;
2011;SDS011;1009;51.436;6.972;2022-07-29T15:36:04;5.07;;;3.80;;
2011;SDS011;1009;51.436;6.972;2022-07-29T15:38:31;4.90;;;4.17;;
2011;SDS011;1009;51.436;6.972;2022-07-29T15:40:58;5.00;;;3.37;;
2011;SDS011;1009;51.436;6.972;2022-07-29T15:43:25;9.97;;;3.77;;